sensor_id;sensor_type;location;lat;lon;timestamp;pressure;altitude;pressure_sealevel;temperature;humidity
38806;BME280;25635;51.146;17.162;2023-02-28T00:00:32;101513.30;;;-1.30;78.59
38806;BME280;25635;51.146;17.162;2023-02-28T00:03:16;101516.50;;;-1.31;79.00
38806;BME280;25635;51.146;17.162;2023-02-28T00:05:42;101518.04;;;-1.31;79.21
38806;BME280;25635;51.146;17.162;2023-02-28T00:08:08;101513.27;;;-1.34;79.20
38806;BME280;25635;51.146;17.162;2023-02-28T00:10:34;101516.21;;;-1.36;79.56
38806;BME280;25635;51.146;17.162;2023-02-28T00:13:04;101520.11;;;-1.37;79.29
38806;BME280;25635;51.146;17.162;2023-02-28T00:15:31;101517.27;;;-1.35;79.37
38806;BME280;25635;51.146;17.162;2023-02-28T00:17:57;101517.39;;;-1.33;79.48
38806;BME280;25635;51.146;17.162;2023-02-28T00:20:24;101516.31;;;-1.31;79.25
38806;BME280;25635;51.146;17.162;2023-02-28T00:22:52;101514.13;;;-1.28;79.34
38806;BME280;25635;51.146;17.162;2023-02-28T00:25:21;101510.91;;;-1.25;79.24
38806;BME280;25635;51.146;17.162;2023-02-28T00:27:47;101508.48;;;-1.23;79.11
38806;BME280;25635;51.146;17.162;2023-02-28T00:30:17;101514.27;;;-1.20;78.99
38806;BME280;25635;51.146;17.162;2023-02-28T00:32:43;101513.61;;;-1.17;79.31
38806;BME280;25635;51.146;17.162;2023-02-28T00:35:10;101513.02;;;-1.18;79.24
38806;BME280;25635;51.146;17.162;2023-02-28T00:37:36;101515.83;;;-1.19;79.28
38806;BME280;25635;51.146;17.162;2023-02-28T00:40:03;101511.60;;;-1.22;79.23
38806;BME280;25635;51.146;17.162;2023-02-28T00:42:34;101509.52;;;-1.22;79.28
38806;BME280;25635;51.146;17.162;2023-02-28T00:45:00;101503.63;;;-1.23;79.55
38806;BME280;25635;51.146;17.162;2023-02-28T00:47:26;101503.50;;;-1.25;79.38
38806;BME280;25635;51.146;17.162;2023-02-28T00:49:52;101502.82;;;-1.28;79.43
38806;BME280;25635;51.146;17.162;2023-02-28T00:52:18;101501.22;;;-1.29;79.75
38806;BME280;25635;51.146;17.162;2023-02-28T00:54:44;101499.13;;;-1.30;79.47
38806;BME280;25635;51.146;17.162;2023-02-28T00:57:10;101496.19;;;-1.30;79.19
38806;BME280;25635;51.146;17.162;2023-02-28T00:59:36;101499.88;;;-1.29;79.55
38806;BME280;25635;51.146;17.162;2023-02-28T01:02:02;101499.48;;;-1.27;79.72
38806;BME280;25635;51.146;17.162;2023-02-28T01:04:28;101505.08;;;-1.25;79.48
38806;BME280;25635;51.146;17.162;2023-02-28T01:06:54;101501.67;;;-1.25;79.53
38806;BME280;25635;51.146;17.162;2023-02-28T01:09:20;101502.70;;;-1.25;79.70
38806;BME280;25635;51.146;17.162;2023-02-28T01:11:46;101497.86;;;-1.25;80.09
38806;BME280;25635;51.146;17.162;2023-02-28T01:14:18;101500.52;;;-1.27;79.46
38806;BME280;25635;51.146;17.162;2023-02-28T01:16:44;101501.42;;;-1.29;79.65
38806;BME280;25635;51.146;17.162;2023-02-28T01:19:10;101499.89;;;-1.28;79.91
38806;BME280;25635;51.146;17.162;2023-02-28T01:21:36;101495.64;;;-1.31;80.07
38806;BME280;25635;51.146;17.162;2023-02-28T01:24:03;101495.63;;;-1.34;79.71
38806;BME280;25635;51.146;17.162;2023-02-28T01:26:30;101496.71;;;-1.36;79.31
38806;BME280;25635;51.146;17.162;2023-02-28T01:28:56;101495.34;;;-1.39;79.26
38806;BME280;25635;51.146;17.162;2023-02-28T01:31:23;101498.13;;;-1.41;79.23
38806;BME280;25635;51.146;17.162;2023-02-28T01:33:49;101497.59;;;-1.41;79.35
38806;BME280;25635;51.146;17.162;2023-02-28T01:36:18;101499.52;;;-1.41;79.28
38806;BME280;25635;51.146;17.162;2023-02-28T01:38:45;101498.67;;;-1.37;79.84
38806;BME280;25635;51.146;17.162;2023-02-28T01:41:23;101497.77;;;-1.35;80.16
38806;BME280;25635;51.146;17.162;2023-02-28T01:46:16;101489.83;;;-1.28;79.17
38806;BME280;25635;51.146;17.162;2023-02-28T01:48:58;101489.19;;;-1.27;79.63
38806;BME280;25635;51.146;17.162;2023-02-28T01:51:30;101490.04;;;-1.28;79.71
38806;BME280;25635;51.146;17.162;2023-02-28T01:54:11;101492.80;;;-1.27;79.67
38806;BME280;25635;51.146;17.162;2023-02-28T01:56:55;101493.84;;;-1.27;79.64
38806;BME280;25635;51.146;17.162;2023-02-28T01:59:35;101492.65;;;-1.32;79.76
38806;BME280;25635;51.146;17.162;2023-02-28T02:02:04;101492.16;;;-1.37;79.94
38806;BME280;25635;51.146;17.162;2023-02-28T02:04:38;101491.80;;;-1.40;79.94
38806;BME280;25635;51.146;17.162;2023-02-28T02:07:06;101491.36;;;-1.42;79.75
38806;BME280;25635;51.146;17.162;2023-02-28T02:09:32;101491.63;;;-1.40;79.84
38806;BME280;25635;51.146;17.162;2023-02-28T02:11:59;101492.02;;;-1.37;80.01
38806;BME280;25635;51.146;17.162;2023-02-28T02:17:06;101492.61;;;-1.30;80.18
38806;BME280;25635;51.146;17.162;2023-02-28T02:25:32;101491.48;;;-1.17;79.93
38806;BME280;25635;51.146;17.162;2023-02-28T02:28:24;101491.31;;;-1.15;79.92
38806;BME280;25635;51.146;17.162;2023-02-28T02:36:38;101491.18;;;-1.17;80.14
38806;BME280;25635;51.146;17.162;2023-02-28T02:39:17;101488.89;;;-1.21;80.29
38806;BME280;25635;51.146;17.162;2023-02-28T02:41:54;101487.16;;;-1.27;79.59
38806;BME280;25635;51.146;17.162;2023-02-28T02:44:30;101490.36;;;-1.31;80.15
38806;BME280;25635;51.146;17.162;2023-02-28T02:47:08;101485.66;;;-1.32;80.40
38806;BME280;25635;51.146;17.162;2023-02-28T02:49:38;101488.19;;;-1.33;80.43
38806;BME280;25635;51.146;17.162;2023-02-28T02:52:07;101481.40;;;-1.32;80.10
38806;BME280;25635;51.146;17.162;2023-02-28T02:54:37;101484.56;;;-1.30;80.15
38806;BME280;25635;51.146;17.162;2023-02-28T02:57:07;101482.13;;;-1.28;80.16
38806;BME280;25635;51.146;17.162;2023-02-28T02:59:36;101483.14;;;-1.26;80.58
38806;BME280;25635;51.146;17.162;2023-02-28T03:02:06;101482.59;;;-1.23;79.97
38806;BME280;25635;51.146;17.162;2023-02-28T03:04:51;101481.20;;;-1.21;79.83
38806;BME280;25635;51.146;17.162;2023-02-28T03:07:18;101482.89;;;-1.21;79.91
38806;BME280;25635;51.146;17.162;2023-02-28T03:09:55;101483.34;;;-1.22;80.05
38806;BME280;25635;51.146;17.162;2023-02-28T03:12:23;101484.96;;;-1.24;79.81
38806;BME280;25635;51.146;17.162;2023-02-28T03:20:47;101491.33;;;-1.31;79.80
38806;BME280;25635;51.146;17.162;2023-02-28T03:23:19;101488.38;;;-1.38;80.08
38806;BME280;25635;51.146;17.162;2023-02-28T03:25:57;101487.14;;;-1.42;80.18
38806;BME280;25635;51.146;17.162;2023-02-28T03:28:36;101491.28;;;-1.44;80.45
38806;BME280;25635;51.146;17.162;2023-02-28T03:33:47;101498.95;;;-1.44;80.47
38806;BME280;25635;51.146;17.162;2023-02-28T03:36:29;101494.29;;;-1.45;80.47
38806;BME280;25635;51.146;17.162;2023-02-28T03:39:04;101501.80;;;-1.45;80.25
38806;BME280;25635;51.146;17.162;2023-02-28T03:41:39;101500.09;;;-1.42;80.68
38806;BME280;25635;51.146;17.162;2023-02-28T03:44:16;101507.15;;;-1.42;80.51
38806;BME280;25635;51.146;17.162;2023-02-28T03:46:49;101505.35;;;-1.43;80.61
38806;BME280;25635;51.146;17.162;2023-02-28T03:49:21;101507.77;;;-1.43;80.47
38806;BME280;25635;51.146;17.162;2023-02-28T03:51:49;101508.52;;;-1.45;81.00
38806;BME280;25635;51.146;17.162;2023-02-28T03:54:25;101509.06;;;-1.47;80.67
38806;BME280;25635;51.146;17.162;2023-02-28T03:57:03;101507.84;;;-1.50;80.82
38806;BME280;25635;51.146;17.162;2023-02-28T03:59:37;101510.96;;;-1.52;80.65
38806;BME280;25635;51.146;17.162;2023-02-28T04:02:05;101507.88;;;-1.55;80.91
38806;BME280;25635;51.146;17.162;2023-02-28T04:04:31;101510.30;;;-1.57;81.02
38806;BME280;25635;51.146;17.162;2023-02-28T04:07:03;101513.78;;;-1.59;81.05
38806;BME280;25635;51.146;17.162;2023-02-28T04:09:29;101513.04;;;-1.63;80.98
38806;BME280;25635;51.146;17.162;2023-02-28T04:11:55;101514.85;;;-1.64;81.22
38806;BME280;25635;51.146;17.162;2023-02-28T04:14:22;101512.38;;;-1.65;81.25
38806;BME280;25635;51.146;17.162;2023-02-28T04:16:48;101514.34;;;-1.66;81.35
38806;BME280;25635;51.146;17.162;2023-02-28T04:19:14;101518.45;;;-1.66;81.22
38806;BME280;25635;51.146;17.162;2023-02-28T04:21:43;101521.54;;;-1.67;81.29
38806;BME280;25635;51.146;17.162;2023-02-28T04:24:12;101520.60;;;-1.68;81.17
38806;BME280;25635;51.146;17.162;2023-02-28T04:26:41;101519.13;;;-1.69;81.60
38806;BME280;25635;51.146;17.162;2023-02-28T04:29:10;101525.40;;;-1.70;81.79
38806;BME280;25635;51.146;17.162;2023-02-28T04:31:37;101526.90;;;-1.71;82.00
38806;BME280;25635;51.146;17.162;2023-02-28T04:34:03;101529.39;;;-1.72;81.50
38806;BME280;25635;51.146;17.162;2023-02-28T04:36:29;101528.39;;;-1.74;81.47
38806;BME280;25635;51.146;17.162;2023-02-28T04:38:56;101534.82;;;-1.75;81.52
38806;BME280;25635;51.146;17.162;2023-02-28T04:41:23;101530.40;;;-1.75;81.46
38806;BME280;25635;51.146;17.162;2023-02-28T04:43:51;101528.89;;;-1.72;81.50
38806;BME280;25635;51.146;17.162;2023-02-28T04:46:19;101531.95;;;-1.69;81.51
38806;BME280;25635;51.146;17.162;2023-02-28T04:48:45;101533.94;;;-1.68;81.40
38806;BME280;25635;51.146;17.162;2023-02-28T04:51:13;101535.48;;;-1.65;81.42
38806;BME280;25635;51.146;17.162;2023-02-28T04:53:40;101534.98;;;-1.65;81.37
38806;BME280;25635;51.146;17.162;2023-02-28T04:56:08;101535.67;;;-1.65;81.49
38806;BME280;25635;51.146;17.162;2023-02-28T04:58:36;101535.54;;;-1.64;81.61
38806;BME280;25635;51.146;17.162;2023-02-28T05:01:14;101537.29;;;-1.63;81.95
38806;BME280;25635;51.146;17.162;2023-02-28T05:03:42;101535.87;;;-1.64;81.79
38806;BME280;25635;51.146;17.162;2023-02-28T05:06:10;101533.53;;;-1.66;81.93
38806;BME280;25635;51.146;17.162;2023-02-28T05:08:36;101536.38;;;-1.67;81.93
38806;BME280;25635;51.146;17.162;2023-02-28T05:11:06;101537.38;;;-1.70;81.75
38806;BME280;25635;51.146;17.162;2023-02-28T05:13:32;101534.80;;;-1.73;81.81
38806;BME280;25635;51.146;17.162;2023-02-28T05:15:58;101533.71;;;-1.74;81.99
38806;BME280;25635;51.146;17.162;2023-02-28T05:18:24;101534.23;;;-1.74;82.07
38806;BME280;25635;51.146;17.162;2023-02-28T05:20:50;101535.57;;;-1.74;82.41
38806;BME280;25635;51.146;17.162;2023-02-28T05:23:20;101537.79;;;-1.74;82.33
38806;BME280;25635;51.146;17.162;2023-02-28T05:25:52;101543.54;;;-1.73;82.18
38806;BME280;25635;51.146;17.162;2023-02-28T05:28:23;101542.05;;;-1.69;82.06
38806;BME280;25635;51.146;17.162;2023-02-28T05:30:49;101544.59;;;-1.67;82.19
38806;BME280;25635;51.146;17.162;2023-02-28T05:33:16;101545.40;;;-1.65;82.36
38806;BME280;25635;51.146;17.162;2023-02-28T05:35:44;101547.88;;;-1.63;82.29
38806;BME280;25635;51.146;17.162;2023-02-28T05:38:10;101550.91;;;-1.64;82.66
38806;BME280;25635;51.146;17.162;2023-02-28T05:40:38;101552.04;;;-1.66;82.46
38806;BME280;25635;51.146;17.162;2023-02-28T05:43:05;101552.03;;;-1.68;82.27
38806;BME280;25635;51.146;17.162;2023-02-28T05:45:31;101561.56;;;-1.69;82.66
38806;BME280;25635;51.146;17.162;2023-02-28T05:47:57;101562.98;;;-1.71;82.49
38806;BME280;25635;51.146;17.162;2023-02-28T05:50:23;101565.16;;;-1.74;82.78
38806;BME280;25635;51.146;17.162;2023-02-28T05:52:50;101567.09;;;-1.76;82.75
38806;BME280;25635;51.146;17.162;2023-02-28T05:55:17;101574.73;;;-1.77;82.52
38806;BME280;25635;51.146;17.162;2023-02-28T05:57:43;101575.41;;;-1.77;82.73
38806;BME280;25635;51.146;17.162;2023-02-28T06:00:09;101574.99;;;-1.75;82.29
38806;BME280;25635;51.146;17.162;2023-02-28T06:02:36;101574.88;;;-1.72;81.86
38806;BME280;25635;51.146;17.162;2023-02-28T06:05:02;101575.45;;;-1.69;81.69
38806;BME280;25635;51.146;17.162;2023-02-28T06:07:28;101581.88;;;-1.64;81.96
38806;BME280;25635;51.146;17.162;2023-02-28T06:09:54;101585.58;;;-1.59;82.02
38806;BME280;25635;51.146;17.162;2023-02-28T06:12:20;101585.33;;;-1.55;81.79
38806;BME280;25635;51.146;17.162;2023-02-28T06:14:46;101589.50;;;-1.52;82.10
38806;BME280;25635;51.146;17.162;2023-02-28T06:17:12;101588.35;;;-1.48;82.33
38806;BME280;25635;51.146;17.162;2023-02-28T06:19:38;101589.17;;;-1.46;82.34
38806;BME280;25635;51.146;17.162;2023-02-28T06:22:06;101589.77;;;-1.45;82.28
38806;BME280;25635;51.146;17.162;2023-02-28T06:24:32;101591.44;;;-1.43;82.25
38806;BME280;25635;51.146;17.162;2023-02-28T06:26:59;101590.62;;;-1.39;82.12
38806;BME280;25635;51.146;17.162;2023-02-28T06:29:34;101591.23;;;-1.34;81.86
38806;BME280;25635;51.146;17.162;2023-02-28T06:32:01;101596.89;;;-1.29;81.64
38806;BME280;25635;51.146;17.162;2023-02-28T06:34:27;101599.11;;;-1.24;81.90
38806;BME280;25635;51.146;17.162;2023-02-28T06:36:53;101601.85;;;-1.18;81.82
38806;BME280;25635;51.146;17.162;2023-02-28T06:39:19;101604.73;;;-1.13;81.28
38806;BME280;25635;51.146;17.162;2023-02-28T06:41:45;101608.65;;;-1.08;81.79
38806;BME280;25635;51.146;17.162;2023-02-28T06:44:15;101605.98;;;-1.04;82.24
38806;BME280;25635;51.146;17.162;2023-02-28T06:46:42;101609.71;;;-1.02;81.90
38806;BME280;25635;51.146;17.162;2023-02-28T06:49:10;101613.91;;;-1.00;81.77
38806;BME280;25635;51.146;17.162;2023-02-28T06:51:38;101615.05;;;-0.98;81.97
38806;BME280;25635;51.146;17.162;2023-02-28T06:54:05;101617.41;;;-0.96;82.32
38806;BME280;25635;51.146;17.162;2023-02-28T06:56:31;101614.04;;;-0.95;81.96
38806;BME280;25635;51.146;17.162;2023-02-28T06:58:57;101615.02;;;-0.93;81.94
38806;BME280;25635;51.146;17.162;2023-02-28T07:01:23;101617.52;;;-0.89;81.84
38806;BME280;25635;51.146;17.162;2023-02-28T07:03:50;101612.27;;;-0.85;81.80
38806;BME280;25635;51.146;17.162;2023-02-28T07:06:19;101608.17;;;-0.79;81.21
38806;BME280;25635;51.146;17.162;2023-02-28T07:08:46;101613.84;;;-0.73;80.67
38806;BME280;25635;51.146;17.162;2023-02-28T07:11:12;101612.16;;;-0.67;80.95
38806;BME280;25635;51.146;17.162;2023-02-28T07:13:37;101613.14;;;-0.59;80.06
38806;BME280;25635;51.146;17.162;2023-02-28T07:16:05;101615.95;;;-0.52;79.96
38806;BME280;25635;51.146;17.162;2023-02-28T07:18:32;101615.00;;;-0.45;80.47
38806;BME280;25635;51.146;17.162;2023-02-28T07:20:58;101618.05;;;-0.36;80.61
38806;BME280;25635;51.146;17.162;2023-02-28T07:23:24;101619.32;;;-0.32;78.79
38806;BME280;25635;51.146;17.162;2023-02-28T07:25:50;101619.36;;;-0.29;79.14
38806;BME280;25635;51.146;17.162;2023-02-28T07:28:16;101618.90;;;-0.22;79.80
38806;BME280;25635;51.146;17.162;2023-02-28T07:30:42;101619.30;;;-0.15;79.50
38806;BME280;25635;51.146;17.162;2023-02-28T07:33:08;101614.02;;;-0.11;77.72
38806;BME280;25635;51.146;17.162;2023-02-28T07:35:34;101616.63;;;-0.11;76.28
38806;BME280;25635;51.146;17.162;2023-02-28T07:38:00;101615.59;;;-0.05;78.08
38806;BME280;25635;51.146;17.162;2023-02-28T07:40:26;101617.61;;;0.04;78.11
38806;BME280;25635;51.146;17.162;2023-02-28T07:42:52;101621.92;;;0.10;75.87
38806;BME280;25635;51.146;17.162;2023-02-28T08:04:27;101623.66;;;0.62;76.90
38806;BME280;25635;51.146;17.162;2023-02-28T08:06:54;101619.64;;;0.68;75.52
38806;BME280;25635;51.146;17.162;2023-02-28T08:09:21;101625.38;;;0.69;75.03
38806;BME280;25635;51.146;17.162;2023-02-28T08:11:48;101622.44;;;0.75;75.86
38806;BME280;25635;51.146;17.162;2023-02-28T08:14:14;101623.48;;;0.81;74.38
38806;BME280;25635;51.146;17.162;2023-02-28T08:16:40;101619.39;;;0.85;74.49
38806;BME280;25635;51.146;17.162;2023-02-28T08:19:05;101622.77;;;0.90;74.85
38806;BME280;25635;51.146;17.162;2023-02-28T08:21:32;101622.40;;;0.96;73.99
38806;BME280;25635;51.146;17.162;2023-02-28T08:23:59;101623.03;;;0.95;71.68
38806;BME280;25635;51.146;17.162;2023-02-28T08:26:25;101623.58;;;0.96;72.02
38806;BME280;25635;51.146;17.162;2023-02-28T08:28:51;101620.45;;;1.05;73.09
38806;BME280;25635;51.146;17.162;2023-02-28T08:31:18;101622.05;;;1.19;74.54
38806;BME280;25635;51.146;17.162;2023-02-28T08:33:44;101618.95;;;1.32;73.90
38806;BME280;25635;51.146;17.162;2023-02-28T08:36:11;101618.89;;;1.47;74.93
38806;BME280;25635;51.146;17.162;2023-02-28T08:38:37;101620.33;;;1.62;74.67
